sensor_id;sensor_type;location;lat;lon;timestamp;pressure;altitude;pressure_sealevel;temperature;humidity
36092;BME280;22147;52.388;13.390;2022-11-20T00:01:54;100584.31;;;-2.41;100.00
36092;BME280;22147;52.388;13.390;2022-11-20T00:04:22;100587.88;;;-2.41;100.00
36092;BME280;22147;52.388;13.390;2022-11-20T00:06:51;100586.22;;;-2.42;100.00
36092;BME280;22147;52.388;13.390;2022-11-20T00:09:19;100587.88;;;-2.41;100.00
36092;BME280;22147;52.388;13.390;2022-11-20T00:11:48;100582.75;;;-2.37;100.00
36092;BME280;22147;52.388;13.390;2022-11-20T00:14:19;100579.13;;;-2.43;100.00
36092;BME280;22147;52.388;13.390;2022-11-20T00:16:48;100570.97;;;-2.43;100.00
36092;BME280;22147;52.388;13.390;2022-11-20T00:19:16;100579.97;;;-2.42;100.00
36092;BME280;22147;52.388;13.390;2022-11-20T00:21:45;100580.94;;;-2.49;100.00
36092;BME280;22147;52.388;13.390;2022-11-20T00:24:13;100578.38;;;-2.55;100.00
36092;BME280;22147;52.388;13.390;2022-11-20T00:26:41;100577.88;;;-2.52;100.00
36092;BME280;22147;52.388;13.390;2022-11-20T00:29:13;100582.72;;;-2.54;100.00
36092;BME280;22147;52.388;13.390;2022-11-20T00:31:42;100578.84;;;-2.58;100.00
36092;BME280;22147;52.388;13.390;2022-11-20T00:34:12;100566.34;;;-2.59;100.00
36092;BME280;22147;52.388;13.390;2022-11-20T00:36:40;100572.81;;;-2.60;100.00
36092;BME280;22147;52.388;13.390;2022-11-20T00:39:09;100578.53;;;-2.62;100.00
36092;BME280;22147;52.388;13.390;2022-11-20T00:41:39;100581.47;;;-2.63;100.00
36092;BME280;22147;52.388;13.390;2022-11-20T00:44:09;100589.28;;;-2.67;100.00
36092;BME280;22147;52.388;13.390;2022-11-20T00:46:39;100592.88;;;-2.67;100.00
36092;BME280;22147;52.388;13.390;2022-11-20T00:49:09;100583.28;;;-2.69;100.00
36092;BME280;22147;52.388;13.390;2022-11-20T00:51:39;100587.66;;;-2.68;100.00
36092;BME280;22147;52.388;13.390;2022-11-20T00:54:09;100582.97;;;-2.73;100.00
36092;BME280;22147;52.388;13.390;2022-11-20T00:56:38;100589.69;;;-2.75;100.00
36092;BME280;22147;52.388;13.390;2022-11-20T00:59:09;100588.03;;;-2.76;100.00
36092;BME280;22147;52.388;13.390;2022-11-20T01:01:39;100592.16;;;-2.74;100.00
36092;BME280;22147;52.388;13.390;2022-11-20T01:04:09;100586.97;;;-2.75;100.00
36092;BME280;22147;52.388;13.390;2022-11-20T01:06:39;100589.69;;;-2.75;100.00
36092;BME280;22147;52.388;13.390;2022-11-20T01:09:13;100582.38;;;-2.75;100.00
36092;BME280;22147;52.388;13.390;2022-11-20T01:11:44;100584.75;;;-2.78;100.00
36092;BME280;22147;52.388;13.390;2022-11-20T01:14:18;100582.75;;;-2.83;100.00
36092;BME280;22147;52.388;13.390;2022-11-20T01:16:50;100588.09;;;-2.88;100.00
36092;BME280;22147;52.388;13.390;2022-11-20T01:19:23;100583.50;;;-2.88;100.00
36092;BME280;22147;52.388;13.390;2022-11-20T01:21:54;100582.31;;;-2.92;100.00
36092;BME280;22147;52.388;13.390;2022-11-20T01:24:23;100586.31;;;-2.94;100.00
36092;BME280;22147;52.388;13.390;2022-11-20T01:26:52;100583.88;;;-2.96;100.00
36092;BME280;22147;52.388;13.390;2022-11-20T01:29:23;100571.59;;;-2.98;100.00
36092;BME280;22147;52.388;13.390;2022-11-20T01:31:53;100573.72;;;-3.00;100.00
36092;BME280;22147;52.388;13.390;2022-11-20T01:34:23;100567.94;;;-3.04;100.00
36092;BME280;22147;52.388;13.390;2022-11-20T01:36:54;100574.56;;;-3.00;100.00
36092;BME280;22147;52.388;13.390;2022-11-20T01:39:26;100573.63;;;-3.05;100.00
36092;BME280;22147;52.388;13.390;2022-11-20T01:41:56;100575.16;;;-3.10;100.00
36092;BME280;22147;52.388;13.390;2022-11-20T01:44:58;100580.50;;;-3.15;100.00
36092;BME280;22147;52.388;13.390;2022-11-20T01:50:24;100571.66;;;-3.22;100.00
36092;BME280;22147;52.388;13.390;2022-11-20T01:53:05;100568.13;;;-3.22;100.00
36092;BME280;22147;52.388;13.390;2022-11-20T01:55:48;100570.59;;;-3.21;100.00
36092;BME280;22147;52.388;13.390;2022-11-20T01:58:33;100572.97;;;-3.24;100.00
36092;BME280;22147;52.388;13.390;2022-11-20T02:01:10;100565.31;;;-3.28;100.00
36092;BME280;22147;52.388;13.390;2022-11-20T02:03:43;100568.03;;;-3.28;100.00
36092;BME280;22147;52.388;13.390;2022-11-20T02:06:27;100566.25;;;-3.34;100.00
36092;BME280;22147;52.388;13.390;2022-11-20T02:09:02;100566.72;;;-3.37;100.00
36092;BME280;22147;52.388;13.390;2022-11-20T02:11:32;100563.41;;;-3.39;100.00
36092;BME280;22147;52.388;13.390;2022-11-20T02:14:03;100561.56;;;-3.38;100.00
36092;BME280;22147;52.388;13.390;2022-11-20T02:16:45;100559.66;;;-3.38;100.00
36092;BME280;22147;52.388;13.390;2022-11-20T02:19:28;100556.44;;;-3.35;100.00
36092;BME280;22147;52.388;13.390;2022-11-20T02:22:28;100548.28;;;-3.35;100.00
36092;BME280;22147;52.388;13.390;2022-11-20T02:25:08;100560.34;;;-3.31;100.00
36092;BME280;22147;52.388;13.390;2022-11-20T02:27:40;100545.59;;;-3.35;100.00
36092;BME280;22147;52.388;13.390;2022-11-20T02:30:11;100543.38;;;-3.38;100.00
36092;BME280;22147;52.388;13.390;2022-11-20T02:32:41;100547.38;;;-3.40;100.00
36092;BME280;22147;52.388;13.390;2022-11-20T02:37:54;100552.22;;;-3.42;100.00
36092;BME280;22147;52.388;13.390;2022-11-20T02:40:22;100548.94;;;-3.44;100.00
36092;BME280;22147;52.388;13.390;2022-11-20T02:42:55;100544.81;;;-3.47;100.00
36092;BME280;22147;52.388;13.390;2022-11-20T02:45:26;100541.25;;;-3.48;100.00
36092;BME280;22147;52.388;13.390;2022-11-20T02:47:56;100539.03;;;-3.51;100.00
36092;BME280;22147;52.388;13.390;2022-11-20T02:50:26;100540.06;;;-3.52;100.00
36092;BME280;22147;52.388;13.390;2022-11-20T02:52:56;100532.06;;;-3.58;100.00
36092;BME280;22147;52.388;13.390;2022-11-20T02:55:26;100526.31;;;-3.62;100.00
36092;BME280;22147;52.388;13.390;2022-11-20T02:57:56;100532.78;;;-3.63;100.00
36092;BME280;22147;52.388;13.390;2022-11-20T03:00:24;100530.88;;;-3.62;100.00
36092;BME280;22147;52.388;13.390;2022-11-20T03:02:53;100525.94;;;-3.65;100.00
36092;BME280;22147;52.388;13.390;2022-11-20T03:05:21;100526.41;;;-3.69;100.00
36092;BME280;22147;52.388;13.390;2022-11-20T03:07:50;100528.31;;;-3.69;100.00
36092;BME280;22147;52.388;13.390;2022-11-20T03:10:18;100519.00;;;-3.73;100.00
36092;BME280;22147;52.388;13.390;2022-11-20T03:12:47;100520.28;;;-3.76;100.00
36092;BME280;22147;52.388;13.390;2022-11-20T03:15:15;100523.00;;;-3.76;100.00
36092;BME280;22147;52.388;13.390;2022-11-20T03:17:43;100524.91;;;-3.76;100.00
36092;BME280;22147;52.388;13.390;2022-11-20T03:20:12;100517.00;;;-3.78;100.00
36092;BME280;22147;52.388;13.390;2022-11-20T03:22:40;100516.19;;;-3.78;100.00
36092;BME280;22147;52.388;13.390;2022-11-20T03:25:09;100511.47;;;-3.83;100.00
36092;BME280;22147;52.388;13.390;2022-11-20T03:27:37;100513.34;;;-3.83;100.00
36092;BME280;22147;52.388;13.390;2022-11-20T03:30:06;100506.50;;;-3.86;100.00
36092;BME280;22147;52.388;13.390;2022-11-20T03:32:36;100511.81;;;-3.91;100.00
36092;BME280;22147;52.388;13.390;2022-11-20T03:35:05;100510.41;;;-3.94;100.00
36092;BME280;22147;52.388;13.390;2022-11-20T03:37:33;100512.53;;;-3.96;100.00
36092;BME280;22147;52.388;13.390;2022-11-20T03:40:02;100511.22;;;-3.93;100.00
36092;BME280;22147;52.388;13.390;2022-11-20T03:42:30;100509.94;;;-3.91;100.00
36092;BME280;22147;52.388;13.390;2022-11-20T03:45:17;100512.16;;;-3.88;100.00
36092;BME280;22147;52.388;13.390;2022-11-20T03:47:47;100513.81;;;-3.86;100.00
36092;BME280;22147;52.388;13.390;2022-11-20T03:50:15;100511.47;;;-3.83;100.00
36092;BME280;22147;52.388;13.390;2022-11-20T03:52:43;100511.78;;;-3.79;100.00
36092;BME280;22147;52.388;13.390;2022-11-20T03:55:12;100511.34;;;-3.76;100.00
36092;BME280;22147;52.388;13.390;2022-11-20T03:57:40;100511.66;;;-3.73;100.00
36092;BME280;22147;52.388;13.390;2022-11-20T04:00:09;100510.38;;;-3.70;100.00
36092;BME280;22147;52.388;13.390;2022-11-20T04:02:37;100515.91;;;-3.65;100.00
36092;BME280;22147;52.388;13.390;2022-11-20T04:05:06;100504.59;;;-3.62;100.00
36092;BME280;22147;52.388;13.390;2022-11-20T04:07:37;100511.75;;;-3.56;100.00
36092;BME280;22147;52.388;13.390;2022-11-20T04:10:06;100507.84;;;-3.48;100.00
36092;BME280;22147;52.388;13.390;2022-11-20T04:12:34;100505.47;;;-3.44;100.00
36092;BME280;22147;52.388;13.390;2022-11-20T04:15:02;100509.00;;;-3.44;100.00
36092;BME280;22147;52.388;13.390;2022-11-20T04:17:31;100505.22;;;-3.43;100.00
36092;BME280;22147;52.388;13.390;2022-11-20T04:19:59;100501.22;;;-3.40;100.00
36092;BME280;22147;52.388;13.390;2022-11-20T04:22:27;100513.47;;;-3.38;100.00
36092;BME280;22147;52.388;13.390;2022-11-20T04:24:56;100506.75;;;-3.35;100.00
36092;BME280;22147;52.388;13.390;2022-11-20T04:27:24;100507.56;;;-3.35;100.00
36092;BME280;22147;52.388;13.390;2022-11-20T04:29:53;100505.91;;;-3.36;100.00
36092;BME280;22147;52.388;13.390;2022-11-20T04:32:21;100502.97;;;-3.34;100.00
36092;BME280;22147;52.388;13.390;2022-11-20T04:34:49;100509.56;;;-3.30;100.00
36092;BME280;22147;52.388;13.390;2022-11-20T04:37:18;100504.72;;;-3.28;100.00
36092;BME280;22147;52.388;13.390;2022-11-20T04:39:46;100504.47;;;-3.27;100.00
36092;BME280;22147;52.388;13.390;2022-11-20T04:42:15;100504.81;;;-3.23;100.00
36092;BME280;22147;52.388;13.390;2022-11-20T04:45:00;100509.16;;;-3.22;100.00
36092;BME280;22147;52.388;13.390;2022-11-20T04:47:30;100501.88;;;-3.21;100.00
36092;BME280;22147;52.388;13.390;2022-11-20T04:50:00;100498.28;;;-3.22;100.00
36092;BME280;22147;52.388;13.390;2022-11-20T04:52:30;100488.88;;;-3.19;100.00
36092;BME280;22147;52.388;13.390;2022-11-20T04:54:59;100493.81;;;-3.16;100.00
36092;BME280;22147;52.388;13.390;2022-11-20T04:57:29;100488.94;;;-3.14;100.00
36092;BME280;22147;52.388;13.390;2022-11-20T04:59:59;100487.63;;;-3.12;100.00
36092;BME280;22147;52.388;13.390;2022-11-20T05:02:31;100487.16;;;-3.09;100.00
36092;BME280;22147;52.388;13.390;2022-11-20T05:05:01;100479.81;;;-3.08;100.00
36092;BME280;22147;52.388;13.390;2022-11-20T05:07:31;100481.22;;;-3.05;100.00
36092;BME280;22147;52.388;13.390;2022-11-20T05:10:01;100471.75;;;-3.03;100.00
36092;BME280;22147;52.388;13.390;2022-11-20T05:12:31;100470.47;;;-3.00;100.00
36092;BME280;22147;52.388;13.390;2022-11-20T05:15:01;100473.75;;;-2.98;100.00
36092;BME280;22147;52.388;13.390;2022-11-20T05:17:31;100468.91;;;-2.96;100.00
36092;BME280;22147;52.388;13.390;2022-11-20T05:19:59;100461.81;;;-2.97;100.00
36092;BME280;22147;52.388;13.390;2022-11-20T05:22:28;100469.97;;;-2.97;100.00
36092;BME280;22147;52.388;13.390;2022-11-20T05:24:56;100468.66;;;-2.95;100.00
36092;BME280;22147;52.388;13.390;2022-11-20T05:27:25;100472.53;;;-2.91;100.00
36092;BME280;22147;52.388;13.390;2022-11-20T05:29:53;100466.84;;;-2.89;100.00
36092;BME280;22147;52.388;13.390;2022-11-20T05:32:21;100471.19;;;-2.88;100.00
36092;BME280;22147;52.388;13.390;2022-11-20T05:34:53;100469.41;;;-2.82;100.00
36092;BME280;22147;52.388;13.390;2022-11-20T05:37:21;100474.84;;;-2.82;100.00
36092;BME280;22147;52.388;13.390;2022-11-20T05:39:50;100471.06;;;-2.81;100.00
36092;BME280;22147;52.388;13.390;2022-11-20T05:42:18;100471.66;;;-2.79;100.00
36092;BME280;22147;52.388;13.390;2022-11-20T05:45:03;100467.28;;;-2.80;100.00
36092;BME280;22147;52.388;13.390;2022-11-20T05:47:34;100466.44;;;-2.81;100.00
36092;BME280;22147;52.388;13.390;2022-11-20T05:50:05;100464.56;;;-2.80;100.00
36092;BME280;22147;52.388;13.390;2022-11-20T05:52:35;100458.59;;;-2.77;100.00
36092;BME280;22147;52.388;13.390;2022-11-20T05:55:05;100463.81;;;-2.76;100.00
36092;BME280;22147;52.388;13.390;2022-11-20T05:57:35;100459.75;;;-2.73;100.00
36092;BME280;22147;52.388;13.390;2022-11-20T06:00:06;100455.41;;;-2.74;100.00
36092;BME280;22147;52.388;13.390;2022-11-20T06:02:36;100459.75;;;-2.73;100.00
36092;BME280;22147;52.388;13.390;2022-11-20T06:05:07;100458.94;;;-2.74;100.00
36092;BME280;22147;52.388;13.390;2022-11-20T06:07:37;100455.25;;;-2.68;100.00
36092;BME280;22147;52.388;13.390;2022-11-20T06:10:07;100451.72;;;-2.68;100.00
36092;BME280;22147;52.388;13.390;2022-11-20T06:12:37;100456.06;;;-2.67;100.00
36092;BME280;22147;52.388;13.390;2022-11-20T06:15:08;100460.28;;;-2.59;100.00
36092;BME280;22147;52.388;13.390;2022-11-20T06:17:40;100462.41;;;-2.61;100.00
36092;BME280;22147;52.388;13.390;2022-11-20T06:20:10;100454.50;;;-2.63;100.00
36092;BME280;22147;52.388;13.390;2022-11-20T06:22:40;100454.78;;;-2.64;100.00
36092;BME280;22147;52.388;13.390;2022-11-20T06:25:10;100455.59;;;-2.64;100.00
36092;BME280;22147;52.388;13.390;2022-11-20T06:27:40;100462.06;;;-2.65;100.00
36092;BME280;22147;52.388;13.390;2022-11-20T06:30:11;100460.22;;;-2.64;100.00
36092;BME280;22147;52.388;13.390;2022-11-20T06:32:41;100471.91;;;-2.64;100.00
36092;BME280;22147;52.388;13.390;2022-11-20T06:35:11;100458.53;;;-2.66;100.00
36092;BME280;22147;52.388;13.390;2022-11-20T06:37:40;100455.41;;;-2.57;100.00
36092;BME280;22147;52.388;13.390;2022-11-20T06:40:09;100461.78;;;-2.52;100.00
36092;BME280;22147;52.388;13.390;2022-11-20T06:42:39;100459.78;;;-2.56;100.00
36092;BME280;22147;52.388;13.390;2022-11-20T06:45:09;100460.09;;;-2.53;100.00
36092;BME280;22147;52.388;13.390;2022-11-20T06:47:36;100458.72;;;-2.55;100.00
36092;BME280;22147;52.388;13.390;2022-11-20T06:50:05;100452.63;;;-2.62;100.00
36092;BME280;22147;52.388;13.390;2022-11-20T06:52:33;100453.34;;;-2.67;100.00
36092;BME280;22147;52.388;13.390;2022-11-20T06:55:09;100465.66;;;-2.64;100.00
36092;BME280;22147;52.388;13.390;2022-11-20T06:57:39;100451.94;;;-2.70;100.00
36092;BME280;22147;52.388;13.390;2022-11-20T07:00:10;100456.56;;;-2.70;100.00
36092;BME280;22147;52.388;13.390;2022-11-20T07:02:41;100457.91;;;-2.73;100.00
36092;BME280;22147;52.388;13.390;2022-11-20T07:05:11;100463.91;;;-2.71;100.00
36092;BME280;22147;52.388;13.390;2022-11-20T07:07:41;100468.03;;;-2.68;100.00
36092;BME280;22147;52.388;13.390;2022-11-20T07:10:12;100462.41;;;-2.61;100.00
36092;BME280;22147;52.388;13.390;2022-11-20T07:12:40;100461.59;;;-2.62;100.00
36092;BME280;22147;52.388;13.390;2022-11-20T07:15:09;100456.06;;;-2.50;100.00
36092;BME280;22147;52.388;13.390;2022-11-20T07:17:37;100464.63;;;-2.58;100.00
36092;BME280;22147;52.388;13.390;2022-11-20T07:20:06;100459.44;;;-2.77;100.00
36092;BME280;22147;52.388;13.390;2022-11-20T07:22:34;100461.31;;;-2.77;100.00
36092;BME280;22147;52.388;13.390;2022-11-20T07:25:03;100449.00;;;-2.68;100.00
36092;BME280;22147;52.388;13.390;2022-11-20T07:27:34;100454.91;;;-2.71;100.00
36092;BME280;22147;52.388;13.390;2022-11-20T07:30:03;100449.81;;;-2.68;100.00
36092;BME280;22147;52.388;13.390;2022-11-20T07:32:34;100447.03;;;-2.56;100.00
36092;BME280;22147;52.388;13.390;2022-11-20T07:35:04;100442.88;;;-2.58;100.00
36092;BME280;22147;52.388;13.390;2022-11-20T07:37:35;100442.00;;;-2.64;100.00
36092;BME280;22147;52.388;13.390;2022-11-20T07:40:06;100445.28;;;-2.79;100.00
36092;BME280;22147;52.388;13.390;2022-11-20T07:42:36;100448.59;;;-2.77;100.00
36092;BME280;22147;52.388;13.390;2022-11-20T07:45:07;100437.19;;;-2.74;100.00
36092;BME280;22147;52.388;13.390;2022-11-20T07:47:37;100445.00;;;-2.77;100.00
36092;BME280;22147;52.388;13.390;2022-11-20T07:50:08;100446.16;;;-2.73;100.00
36092;BME280;22147;52.388;13.390;2022-11-20T07:52:38;100444.94;;;-2.66;100.00
36092;BME280;22147;52.388;13.390;2022-11-20T07:55:10;100440.44;;;-2.60;100.00
36092;BME280;22147;52.388;13.390;2022-11-20T07:57:40;100443.72;;;-2.58;100.00
36092;BME280;22147;52.388;13.390;2022-11-20T08:00:11;100445.53;;;-2.47;100.00
36092;BME280;22147;52.388;13.390;2022-11-20T08:02:42;100440.72;;;-2.39;100.00
36092;BME280;22147;52.388;13.390;2022-11-20T08:05:12;100432.72;;;-2.29;100.00
36092;BME280;22147;52.388;13.390;2022-11-20T08:07:43;100435.13;;;-2.33;100.00
36092;BME280;22147;52.388;13.390;2022-11-20T08:10:15;100423.75;;;-2.30;100.00
36092;BME280;22147;52.388;13.390;2022-11-20T08:12:52;100434.88;;;-2.31;100.00
36092;BME280;22147;52.388;13.390;2022-11-20T08:15:40;100424.66;;;-2.24;100.00
36092;BME280;22147;52.388;13.390;2022-11-20T08:18:13;100427.28;;;-2.29;100.00
36092;BME280;22147;52.388;13.390;2022-11-20T08:21:04;100419.25;;;-2.19;100.00
36092;BME280;22147;52.388;13.390;2022-11-20T08:23:34;100427.00;;;-2.11;100.00
36092;BME280;22147;52.388;13.390;2022-11-20T08:26:08;100416.63;;;-2.14;100.00
36092;BME280;22147;52.388;13.390;2022-11-20T08:28:38;100424.22;;;-2.16;100.00
36092;BME280;22147;52.388;13.390;2022-11-20T08:31:08;100425.84;;;-2.15;100.00
36092;BME280;22147;52.388;13.390;2022-11-20T08:33:39;100422.22;;;-2.20;100.00
36092;BME280;22147;52.388;13.390;2022-11-20T08:36:09;100423.94;;;-2.14;100.00
36092;BME280;22147;52.388;13.390;2022-11-20T08:38:39;100424.78;;;-2.14;100.00
36092;BME280;22147;52.388;13.390;2022-11-20T08:41:09;100419.59;;;-2.15;100.00
36092;BME280;22147;52.388;13.390;2022-11-20T08:44:01;100422.88;;;-2.13;100.00
36092;BME280;22147;52.388;13.390;2022-11-20T08:46:39;100419.03;;;-2.17;100.00
36092;BME280;22147;52.388;13.390;2022-11-20T08:49:15;100423.81;;;-2.25;100.00
36092;BME280;22147;52.388;13.390;2022-11-20T08:51:44;100421.25;;;-2.31;100.00
36092;BME280;22147;52.388;13.390;2022-11-20T08:54:16;100415.06;;;-2.27;100.00
36092;BME280;22147;52.388;13.390;2022-11-20T08:56:48;100424.13;;;-2.21;100.00
36092;BME280;22147;52.388;13.390;2022-11-20T08:59:18;100424.38;;;-2.22;100.00
36092;BME280;22147;52.388;13.390;2022-11-20T09:02:09;100428.59;;;-2.32;100.00
36092;BME280;22147;52.388;13.390;2022-11-20T09:04:39;100422.25;;;-2.37;100.00
36092;BME280;22147;52.388;13.390;2022-11-20T09:07:09;100422.34;;;-2.32;100.00
36092;BME280;22147;52.388;13.390;2022-11-20T09:09:39;100428.78;;;-2.38;100.00
36092;BME280;22147;52.388;13.390;2022-11-20T09:12:13;100433.47;;;-2.34;100.00
36092;BME280;22147;52.388;13.390;2022-11-20T09:14:47;100426.28;;;-2.23;100.00
36092;BME280;22147;52.388;13.390;2022-11-20T09:17:23;100436.41;;;-2.18;100.00
36092;BME280;22147;52.388;13.390;2022-11-20T09:19:51;100443.44;;;-2.39;100.00
36092;BME280;22147;52.388;13.390;2022-11-20T09:22:20;100439.88;;;-2.23;100.00
36092;BME280;22147;52.388;13.390;2022-11-20T09:24:48;100432.41;;;-1.94;100.00
36092;BME280;22147;52.388;13.390;2022-11-20T09:27:17;100431.63;;;-1.89;100.00
36092;BME280;22147;52.388;13.390;2022-11-20T09:29:48;100437.47;;;-1.80;100.00
36092;BME280;22147;52.388;13.390;2022-11-20T09:32:17;100435.06;;;-1.77;100.00
36092;BME280;22147;52.388;13.390;2022-11-20T09:34:45;100428.34;;;-1.69;100.00
36092;BME280;22147;52.388;13.390;2022-11-20T09:37:13;100430.75;;;-1.73;100.00
36092;BME280;22147;52.388;13.390;2022-11-20T09:39:42;100433.16;;;-1.76;100.00
36092;BME280;22147;52.388;13.390;2022-11-20T09:42:32;100429.88;;;-1.78;100.00
36092;BME280;22147;52.388;13.390;2022-11-20T09:45:42;100424.66;;;-1.80;100.00
36092;BME280;22147;52.388;13.390;2022-11-20T09:51:59;100418.41;;;-1.80;100.00
36092;BME280;22147;52.388;13.390;2022-11-20T09:54:37;100413.78;;;-1.58;100.00
36092;BME280;22147;52.388;13.390;2022-11-20T09:57:20;100415.56;;;-1.69;100.00
36092;BME280;22147;52.388;13.390;2022-11-20T10:00:00;100418.34;;;-1.86;100.00
36092;BME280;22147;52.388;13.390;2022-11-20T10:03:03;100418.69;;;-1.82;100.00
36092;BME280;22147;52.388;13.390;2022-11-20T10:05:57;100412.03;;;-1.69;100.00
36092;BME280;22147;52.388;13.390;2022-11-20T10:09:06;100403.69;;;-1.57;100.00
36092;BME280;22147;52.388;13.390;2022-11-20T10:15:11;100403.78;;;-1.74;100.00
36092;BME280;22147;52.388;13.390;2022-11-20T10:18:48;100390.91;;;-1.57;100.00
36092;BME280;22147;52.388;13.390;2022-11-20T10:24:55;100395.34;;;-1.73;100.00
36092;BME280;22147;52.388;13.390;2022-11-20T10:31:23;100393.00;;;-1.64;100.00
36092;BME280;22147;52.388;13.390;2022-11-20T10:34:00;100399.91;;;-1.56;100.00
36092;BME280;22147;52.388;13.390;2022-11-20T10:37:24;100401.63;;;-1.50;100.00
36092;BME280;22147;52.388;13.390;2022-11-20T10:43:21;100391.00;;;-1.19;100.00
36092;BME280;22147;52.388;13.390;2022-11-20T10:46:44;100389.97;;;-1.40;100.00
36092;BME280;22147;52.388;13.390;2022-11-20T10:49:19;100387.59;;;-1.37;100.00
36092;BME280;22147;52.388;13.390;2022-11-20T10:52:33;100373.84;;;-1.20;100.00
36092;BME280;22147;52.388;13.390;2022-11-20T10:55:50;100375.19;;;-1.23;100.00
36092;BME280;22147;52.388;13.390;2022-11-20T11:01:42;100372.13;;;-1.31;100.00
36092;BME280;22147;52.388;13.390;2022-11-20T11:04:38;100362.13;;;-1.20;100.00
36092;BME280;22147;52.388;13.390;2022-11-20T11:07:23;100366.00;;;-1.11;100.00
36092;BME280;22147;52.388;13.390;2022-11-20T11:10:24;100369.91;;;-1.02;100.00
36092;BME280;22147;52.388;13.390;2022-11-20T11:12:55;100370.19;;;-1.04;100.00
36092;BME280;22147;52.388;13.390;2022-11-20T11:15:40;100372.34;;;-1.06;100.00
36092;BME280;22147;52.388;13.390;2022-11-20T11:18:11;100369.13;;;-0.97;100.00
36092;BME280;22147;52.388;13.390;2022-11-20T11:20:54;100365.31;;;-0.96;100.00
36092;BME280;22147;52.388;13.390;2022-11-20T11:23:37;100362.72;;;-0.81;100.00
36092;BME280;22147;52.388;13.390;2022-11-20T11:26:23;100362.47;;;-0.79;100.00
36092;BME280;22147;52.388;13.390;2022-11-20T11:29:02;100355.75;;;-0.62;100.00
36092;BME280;22147;52.388;13.390;2022-11-20T11:31:34;100359.03;;;-0.59;100.00
36092;BME280;22147;52.388;13.390;2022-11-20T11:34:14;100351.78;;;-0.44;100.00
36092;BME280;22147;52.388;13.390;2022-11-20T11:36:59;100350.16;;;-0.39;100.00
36092;BME280;22147;52.388;13.390;2022-11-20T11:39:33;100351.63;;;-0.22;100.00
36092;BME280;22147;52.388;13.390;2022-11-20T11:42:02;100346.47;;;-0.18;100.00
36092;BME280;22147;52.388;13.390;2022-11-20T11:44:34;100348.06;;;-0.22;100.00
36092;BME280;22147;52.388;13.390;2022-11-20T11:47:37;100343.91;;;-0.35;100.00
36092;BME280;22147;52.388;13.390;2022-11-20T11:50:27;100342.84;;;-0.29;100.00
36092;BME280;22147;52.388;13.390;2022-11-20T11:53:18;100344.28;;;-0.11;100.00
36092;BME280;22147;52.388;13.390;2022-11-20T11:56:09;100336.69;;;-0.04;100.00
36092;BME280;22147;52.388;13.390;2022-11-20T11:58:51;100329.31;;;0.02;100.00
36092;BME280;22147;52.388;13.390;2022-11-20T12:01:35;100335.34;;;0.04;100.00
36092;BME280;22147;52.388;13.390;2022-11-20T12:04:57;100333.72;;;0.08;100.00
36092;BME280;22147;52.388;13.390;2022-11-20T12:08:05;100331.00;;;0.08;100.00
36092;BME280;22147;52.388;13.390;2022-11-20T12:11:37;100324.19;;;0.21;100.00
36092;BME280;22147;52.388;13.390;2022-11-20T12:14:37;100322.88;;;0.29;100.00
36092;BME280;22147;52.388;13.390;2022-11-20T12:17:13;100323.69;;;0.24;100.00
36092;BME280;22147;52.388;13.390;2022-11-20T12:19:47;100328.31;;;0.24;100.00
36092;BME280;22147;52.388;13.390;2022-11-20T12:22:52;100327.78;;;0.22;100.00
36092;BME280;22147;52.388;13.390;2022-11-20T12:25:35;100319.53;;;0.11;100.00
36092;BME280;22147;52.388;13.390;2022-11-20T12:29:01;100316.22;;;-0.01;100.00
36092;BME280;22147;52.388;13.390;2022-11-20T12:38:50;100313.34;;;-0.32;100.00
36092;BME280;22147;52.388;13.390;2022-11-20T12:45:24;100307.19;;;-0.07;100.00
36092;BME280;22147;52.388;13.390;2022-11-20T12:48:42;100310.41;;;-0.25;100.00
36092;BME280;22147;52.388;13.390;2022-11-20T12:57:39;100309.16;;;-0.55;100.00
36092;BME280;22147;52.388;13.390;2022-11-20T13:00:20;100310.78;;;-0.59;100.00
36092;BME280;22147;52.388;13.390;2022-11-20T13:06:25;100298.28;;;-0.50;100.00
36092;BME280;22147;52.388;13.390;2022-11-20T13:08:56;100294.72;;;-0.50;100.00
36092;BME280;22147;52.388;13.390;2022-11-20T13:11:43;100296.63;;;-0.51;100.00
36092;BME280;22147;52.388;13.390;2022-11-20T13:17:41;100303.16;;;-0.52;100.00
36092;BME280;22147;52.388;13.390;2022-11-20T13:20:19;100295.53;;;-0.55;100.00
36092;BME280;22147;52.388;13.390;2022-11-20T13:22:53;100287.28;;;-0.60;100.00
36092;BME280;22147;52.388;13.390;2022-11-20T13:30:53;100286.16;;;-0.69;100.00
36092;BME280;22147;52.388;13.390;2022-11-20T13:33:38;100279.34;;;-0.72;100.00
36092;BME280;22147;52.388;13.390;2022-11-20T13:36:24;100275.50;;;-0.76;100.00
36092;BME280;22147;52.388;13.390;2022-11-20T13:38:56;100274.88;;;-0.88;100.00
36092;BME280;22147;52.388;13.390;2022-11-20T13:41:35;100275.44;;;-0.86;100.00
36092;BME280;22147;52.388;13.390;2022-11-20T13:44:39;100266.72;;;-0.83;100.00
36092;BME280;22147;52.388;13.390;2022-11-20T13:47:28;100262.09;;;-0.83;100.00
36092;BME280;22147;52.388;13.390;2022-11-20T13:49:59;100266.38;;;-0.97;100.00
36092;BME280;22147;52.388;13.390;2022-11-20T13:56:10;100265.16;;;-1.11;100.00
36092;BME280;22147;52.388;13.390;2022-11-20T14:02:20;100270.03;;;-1.18;100.00
36092;BME280;22147;52.388;13.390;2022-11-20T14:05:01;100274.63;;;-1.19;100.00
36092;BME280;22147;52.388;13.390;2022-11-20T14:07:42;100270.84;;;-1.18;100.00
36092;BME280;22147;52.388;13.390;2022-11-20T14:10:27;100275.75;;;-1.15;100.00
36092;BME280;22147;52.388;13.390;2022-11-20T14:13:19;100277.13;;;-1.12;100.00
36092;BME280;22147;52.388;13.390;2022-11-20T14:15:57;100272.81;;;-1.08;100.00